sensor_id;sensor_type;location;lat;lon;timestamp;temperature;humidity
12833;DHT22;6483;51.310;4.462;2022-08-18T00:01:22;16.20;99.90
12833;DHT22;6483;51.310;4.462;2022-08-18T00:03:49;16.30;99.90
12833;DHT22;6483;51.310;4.462;2022-08-18T00:06:16;16.40;99.90
12833;DHT22;6483;51.310;4.462;2022-08-18T00:08:42;16.30;99.90
12833;DHT22;6483;51.310;4.462;2022-08-18T00:11:08;16.40;99.90
12833;DHT22;6483;51.310;4.462;2022-08-18T00:13:37;16.40;99.90
12833;DHT22;6483;51.310;4.462;2022-08-18T00:16:02;16.30;99.90
12833;DHT22;6483;51.310;4.462;2022-08-18T00:18:28;16.40;99.90
12833;DHT22;6483;51.310;4.462;2022-08-18T00:20:54;16.40;99.90
12833;DHT22;6483;51.310;4.462;2022-08-18T00:23:20;16.40;99.90
12833;DHT22;6483;51.310;4.462;2022-08-18T00:25:52;16.30;99.90
12833;DHT22;6483;51.310;4.462;2022-08-18T00:28:19;16.10;99.90
12833;DHT22;6483;51.310;4.462;2022-08-18T00:30:44;16.00;99.90
12833;DHT22;6483;51.310;4.462;2022-08-18T00:33:13;16.00;99.90
12833;DHT22;6483;51.310;4.462;2022-08-18T00:35:38;16.00;99.90
12833;DHT22;6483;51.310;4.462;2022-08-18T00:38:06;16.00;99.90
12833;DHT22;6483;51.310;4.462;2022-08-18T00:40:40;15.90;99.90
12833;DHT22;6483;51.310;4.462;2022-08-18T00:43:13;15.90;99.90
12833;DHT22;6483;51.310;4.462;2022-08-18T00:45:45;15.90;99.90
12833;DHT22;6483;51.310;4.462;2022-08-18T00:48:12;15.90;99.90
12833;DHT22;6483;51.310;4.462;2022-08-18T00:50:45;15.90;99.90
12833;DHT22;6483;51.310;4.462;2022-08-18T00:53:37;15.90;99.90
12833;DHT22;6483;51.310;4.462;2022-08-18T00:56:18;15.90;99.90
12833;DHT22;6483;51.310;4.462;2022-08-18T00:59:00;15.90;99.90
12833;DHT22;6483;51.310;4.462;2022-08-18T01:01:31;15.90;99.90
12833;DHT22;6483;51.310;4.462;2022-08-18T01:04:08;15.90;99.90
12833;DHT22;6483;51.310;4.462;2022-08-18T01:06:55;16.00;99.90
12833;DHT22;6483;51.310;4.462;2022-08-18T01:09:24;15.90;99.90
12833;DHT22;6483;51.310;4.462;2022-08-18T01:11:49;16.00;99.90
12833;DHT22;6483;51.310;4.462;2022-08-18T01:14:16;16.00;99.90
12833;DHT22;6483;51.310;4.462;2022-08-18T01:16:49;16.00;99.90
12833;DHT22;6483;51.310;4.462;2022-08-18T01:19:37;16.10;99.90
12833;DHT22;6483;51.310;4.462;2022-08-18T01:22:53;16.20;99.90
12833;DHT22;6483;51.310;4.462;2022-08-18T01:25:20;16.20;99.90
12833;DHT22;6483;51.310;4.462;2022-08-18T01:28:08;16.20;99.90
12833;DHT22;6483;51.310;4.462;2022-08-18T01:30:49;16.10;99.90
12833;DHT22;6483;51.310;4.462;2022-08-18T01:33:16;16.10;99.90
12833;DHT22;6483;51.310;4.462;2022-08-18T01:35:45;16.10;99.90
12833;DHT22;6483;51.310;4.462;2022-08-18T01:38:16;16.10;99.90
12833;DHT22;6483;51.310;4.462;2022-08-18T01:40:43;16.10;99.90
12833;DHT22;6483;51.310;4.462;2022-08-18T01:43:11;16.10;99.90
12833;DHT22;6483;51.310;4.462;2022-08-18T01:45:40;16.10;99.90
12833;DHT22;6483;51.310;4.462;2022-08-18T01:48:07;16.10;99.90
12833;DHT22;6483;51.310;4.462;2022-08-18T01:50:39;16.00;99.90
12833;DHT22;6483;51.310;4.462;2022-08-18T01:53:06;16.00;99.90
12833;DHT22;6483;51.310;4.462;2022-08-18T01:55:39;15.90;99.90
12833;DHT22;6483;51.310;4.462;2022-08-18T01:58:09;15.90;99.90
12833;DHT22;6483;51.310;4.462;2022-08-18T02:00:35;15.90;99.90
12833;DHT22;6483;51.310;4.462;2022-08-18T02:03:07;15.80;99.90
12833;DHT22;6483;51.310;4.462;2022-08-18T02:05:37;15.70;99.90
12833;DHT22;6483;51.310;4.462;2022-08-18T02:08:04;15.60;99.90
12833;DHT22;6483;51.310;4.462;2022-08-18T02:10:30;16.40;99.90
12833;DHT22;6483;51.310;4.462;2022-08-18T02:12:59;15.70;99.90
12833;DHT22;6483;51.310;4.462;2022-08-18T02:15:25;15.60;99.90
12833;DHT22;6483;51.310;4.462;2022-08-18T02:17:51;15.60;99.90
12833;DHT22;6483;51.310;4.462;2022-08-18T02:20:19;15.50;99.90
12833;DHT22;6483;51.310;4.462;2022-08-18T02:22:48;15.50;99.90
12833;DHT22;6483;51.310;4.462;2022-08-18T02:25:16;15.40;99.90
12833;DHT22;6483;51.310;4.462;2022-08-18T02:27:42;15.40;99.90
12833;DHT22;6483;51.310;4.462;2022-08-18T02:30:11;15.40;99.90
12833;DHT22;6483;51.310;4.462;2022-08-18T02:32:38;15.30;99.90
12833;DHT22;6483;51.310;4.462;2022-08-18T02:35:06;15.30;99.90
12833;DHT22;6483;51.310;4.462;2022-08-18T02:37:32;15.30;99.90
12833;DHT22;6483;51.310;4.462;2022-08-18T02:39:58;15.30;99.90
12833;DHT22;6483;51.310;4.462;2022-08-18T02:42:27;15.20;99.90
12833;DHT22;6483;51.310;4.462;2022-08-18T02:44:54;15.30;99.90
12833;DHT22;6483;51.310;4.462;2022-08-18T02:47:21;15.30;99.90
12833;DHT22;6483;51.310;4.462;2022-08-18T02:49:47;15.30;99.90
12833;DHT22;6483;51.310;4.462;2022-08-18T02:52:13;15.20;99.90
12833;DHT22;6483;51.310;4.462;2022-08-18T02:54:39;15.40;99.90
12833;DHT22;6483;51.310;4.462;2022-08-18T02:57:10;15.40;99.90
12833;DHT22;6483;51.310;4.462;2022-08-18T02:59:38;15.40;99.90
12833;DHT22;6483;51.310;4.462;2022-08-18T03:02:05;15.30;99.90
12833;DHT22;6483;51.310;4.462;2022-08-18T03:04:32;15.30;99.90
12833;DHT22;6483;51.310;4.462;2022-08-18T03:07:01;15.30;99.90
12833;DHT22;6483;51.310;4.462;2022-08-18T03:09:32;15.30;99.90
12833;DHT22;6483;51.310;4.462;2022-08-18T03:12:00;15.30;99.90
12833;DHT22;6483;51.310;4.462;2022-08-18T03:14:26;15.30;99.90
12833;DHT22;6483;51.310;4.462;2022-08-18T03:16:55;15.40;99.90
12833;DHT22;6483;51.310;4.462;2022-08-18T03:19:23;15.30;99.90
12833;DHT22;6483;51.310;4.462;2022-08-18T03:21:49;15.20;99.90
12833;DHT22;6483;51.310;4.462;2022-08-18T03:24:17;15.10;99.90
12833;DHT22;6483;51.310;4.462;2022-08-18T03:26:44;15.00;99.90
12833;DHT22;6483;51.310;4.462;2022-08-18T03:29:13;15.00;99.90
12833;DHT22;6483;51.310;4.462;2022-08-18T03:31:42;15.10;99.90
12833;DHT22;6483;51.310;4.462;2022-08-18T03:34:09;15.20;99.90
12833;DHT22;6483;51.310;4.462;2022-08-18T03:36:38;15.20;99.90
12833;DHT22;6483;51.310;4.462;2022-08-18T03:39:09;15.10;99.90
12833;DHT22;6483;51.310;4.462;2022-08-18T03:41:40;15.10;99.90
12833;DHT22;6483;51.310;4.462;2022-08-18T03:44:12;15.20;99.90
12833;DHT22;6483;51.310;4.462;2022-08-18T03:46:41;15.10;99.90
12833;DHT22;6483;51.310;4.462;2022-08-18T03:49:07;15.10;99.90
12833;DHT22;6483;51.310;4.462;2022-08-18T03:51:34;15.00;99.90
12833;DHT22;6483;51.310;4.462;2022-08-18T03:54:02;14.90;99.90
12833;DHT22;6483;51.310;4.462;2022-08-18T03:56:31;14.80;99.90
12833;DHT22;6483;51.310;4.462;2022-08-18T03:59:07;14.70;99.90
12833;DHT22;6483;51.310;4.462;2022-08-18T04:01:40;14.60;99.90
12833;DHT22;6483;51.310;4.462;2022-08-18T04:04:12;14.70;99.90
12833;DHT22;6483;51.310;4.462;2022-08-18T04:07:05;14.70;99.90
12833;DHT22;6483;51.310;4.462;2022-08-18T04:09:33;14.60;99.90
12833;DHT22;6483;51.310;4.462;2022-08-18T04:12:10;14.60;99.90
12833;DHT22;6483;51.310;4.462;2022-08-18T04:14:41;14.60;99.90
12833;DHT22;6483;51.310;4.462;2022-08-18T04:17:08;14.60;99.90
12833;DHT22;6483;51.310;4.462;2022-08-18T04:19:34;14.60;99.90
12833;DHT22;6483;51.310;4.462;2022-08-18T04:22:00;14.60;99.90
12833;DHT22;6483;51.310;4.462;2022-08-18T04:24:29;14.60;99.90
12833;DHT22;6483;51.310;4.462;2022-08-18T04:26:56;14.50;99.90
12833;DHT22;6483;51.310;4.462;2022-08-18T04:29:25;14.50;99.90
12833;DHT22;6483;51.310;4.462;2022-08-18T04:31:53;14.50;99.90
12833;DHT22;6483;51.310;4.462;2022-08-18T04:34:20;14.50;99.90
12833;DHT22;6483;51.310;4.462;2022-08-18T04:36:50;14.50;99.90
12833;DHT22;6483;51.310;4.462;2022-08-18T04:39:19;14.50;99.90
12833;DHT22;6483;51.310;4.462;2022-08-18T04:41:49;14.50;99.90
12833;DHT22;6483;51.310;4.462;2022-08-18T04:44:15;14.70;99.90
12833;DHT22;6483;51.310;4.462;2022-08-18T04:46:48;14.70;99.90
12833;DHT22;6483;51.310;4.462;2022-08-18T04:49:16;14.70;99.90
12833;DHT22;6483;51.310;4.462;2022-08-18T04:51:48;14.70;99.90
12833;DHT22;6483;51.310;4.462;2022-08-18T04:54:34;14.70;99.90
12833;DHT22;6483;51.310;4.462;2022-08-18T04:57:14;14.60;99.90
12833;DHT22;6483;51.310;4.462;2022-08-18T04:59:42;14.50;99.90
12833;DHT22;6483;51.310;4.462;2022-08-18T05:02:08;14.50;99.90
12833;DHT22;6483;51.310;4.462;2022-08-18T05:04:39;14.50;99.90
12833;DHT22;6483;51.310;4.462;2022-08-18T05:07:08;14.50;99.90
12833;DHT22;6483;51.310;4.462;2022-08-18T05:09:37;14.60;99.90
12833;DHT22;6483;51.310;4.462;2022-08-18T05:12:09;14.60;99.90
12833;DHT22;6483;51.310;4.462;2022-08-18T05:14:37;14.70;99.90
12833;DHT22;6483;51.310;4.462;2022-08-18T05:17:03;14.90;99.90
12833;DHT22;6483;51.310;4.462;2022-08-18T05:19:29;14.90;99.90
12833;DHT22;6483;51.310;4.462;2022-08-18T05:21:58;14.80;99.90
12833;DHT22;6483;51.310;4.462;2022-08-18T05:24:26;14.90;99.90
12833;DHT22;6483;51.310;4.462;2022-08-18T05:26:52;14.80;99.90
12833;DHT22;6483;51.310;4.462;2022-08-18T05:29:22;14.80;99.90
12833;DHT22;6483;51.310;4.462;2022-08-18T05:31:50;14.80;99.90
12833;DHT22;6483;51.310;4.462;2022-08-18T05:34:17;14.90;99.90
12833;DHT22;6483;51.310;4.462;2022-08-18T05:40:05;15.10;99.90
12833;DHT22;6483;51.310;4.462;2022-08-18T05:42:36;15.10;99.90
12833;DHT22;6483;51.310;4.462;2022-08-18T05:45:11;15.30;99.90
12833;DHT22;6483;51.310;4.462;2022-08-18T05:47:37;15.40;99.90
12833;DHT22;6483;51.310;4.462;2022-08-18T05:50:09;15.40;99.90
12833;DHT22;6483;51.310;4.462;2022-08-18T05:52:40;15.50;99.90
12833;DHT22;6483;51.310;4.462;2022-08-18T05:55:25;15.60;99.90
12833;DHT22;6483;51.310;4.462;2022-08-18T05:58:32;15.70;99.90
12833;DHT22;6483;51.310;4.462;2022-08-18T06:01:04;15.80;99.90
12833;DHT22;6483;51.310;4.462;2022-08-18T06:03:44;15.80;99.90
12833;DHT22;6483;51.310;4.462;2022-08-18T06:06:25;15.90;99.90
12833;DHT22;6483;51.310;4.462;2022-08-18T06:11:42;16.10;99.90
12833;DHT22;6483;51.310;4.462;2022-08-18T06:14:09;16.30;99.90
12833;DHT22;6483;51.310;4.462;2022-08-18T06:22:19;16.70;99.90
12833;DHT22;6483;51.310;4.462;2022-08-18T06:28:11;16.90;99.90
12833;DHT22;6483;51.310;4.462;2022-08-18T06:30:59;17.10;99.90
12833;DHT22;6483;51.310;4.462;2022-08-18T06:34:16;17.20;99.90
12833;DHT22;6483;51.310;4.462;2022-08-18T06:36:57;17.40;99.90
12833;DHT22;6483;51.310;4.462;2022-08-18T06:39:46;17.60;99.90
12833;DHT22;6483;51.310;4.462;2022-08-18T06:42:22;17.80;99.90
12833;DHT22;6483;51.310;4.462;2022-08-18T06:45:02;17.90;99.90
12833;DHT22;6483;51.310;4.462;2022-08-18T06:47:52;18.10;99.90
12833;DHT22;6483;51.310;4.462;2022-08-18T06:50:31;18.30;99.90
12833;DHT22;6483;51.310;4.462;2022-08-18T06:53:01;18.40;99.90
12833;DHT22;6483;51.310;4.462;2022-08-18T06:55:39;18.60;99.90
12833;DHT22;6483;51.310;4.462;2022-08-18T06:58:21;18.70;99.90
12833;DHT22;6483;51.310;4.462;2022-08-18T07:03:40;19.10;99.90
12833;DHT22;6483;51.310;4.462;2022-08-18T07:06:23;19.20;99.90
12833;DHT22;6483;51.310;4.462;2022-08-18T07:08:52;19.30;99.90
12833;DHT22;6483;51.310;4.462;2022-08-18T07:11:35;19.30;99.90
12833;DHT22;6483;51.310;4.462;2022-08-18T07:14:21;19.40;99.90
12833;DHT22;6483;51.310;4.462;2022-08-18T07:16:48;19.40;99.90
12833;DHT22;6483;51.310;4.462;2022-08-18T07:19:21;19.60;99.90
12833;DHT22;6483;51.310;4.462;2022-08-18T07:22:13;19.70;99.90
12833;DHT22;6483;51.310;4.462;2022-08-18T07:25:02;19.80;99.90
12833;DHT22;6483;51.310;4.462;2022-08-18T07:27:45;19.90;99.90
12833;DHT22;6483;51.310;4.462;2022-08-18T07:33:11;20.20;99.90
12833;DHT22;6483;51.310;4.462;2022-08-18T07:35:54;20.20;99.90
12833;DHT22;6483;51.310;4.462;2022-08-18T07:40:57;20.20;99.90
12833;DHT22;6483;51.310;4.462;2022-08-18T07:46:03;20.20;99.90
12833;DHT22;6483;51.310;4.462;2022-08-18T07:48:33;20.30;99.90
12833;DHT22;6483;51.310;4.462;2022-08-18T07:51:14;20.50;99.90
12833;DHT22;6483;51.310;4.462;2022-08-18T07:59:46;20.80;99.90
12833;DHT22;6483;51.310;4.462;2022-08-18T08:20:16;23.20;99.90
12833;DHT22;6483;51.310;4.462;2022-08-18T08:26:26;23.70;99.90
12833;DHT22;6483;51.310;4.462;2022-08-18T08:32:04;25.50;99.90
12833;DHT22;6483;51.310;4.462;2022-08-18T08:34:50;26.80;99.90
12833;DHT22;6483;51.310;4.462;2022-08-18T08:37:26;27.80;99.90
12833;DHT22;6483;51.310;4.462;2022-08-18T08:40:06;30.30;99.90
12833;DHT22;6483;51.310;4.462;2022-08-18T08:42:59;32.30;99.90
12833;DHT22;6483;51.310;4.462;2022-08-18T08:45:34;33.40;99.90
12833;DHT22;6483;51.310;4.462;2022-08-18T08:48:08;31.90;99.90
12833;DHT22;6483;51.310;4.462;2022-08-18T08:51:05;29.20;99.90
12833;DHT22;6483;51.310;4.462;2022-08-18T08:54:16;27.60;99.90
12833;DHT22;6483;51.310;4.462;2022-08-18T08:56:46;26.10;99.90
12833;DHT22;6483;51.310;4.462;2022-08-18T08:59:16;25.70;99.90
12833;DHT22;6483;51.310;4.462;2022-08-18T09:02:08;26.80;99.90
12833;DHT22;6483;51.310;4.462;2022-08-18T09:05:07;29.10;99.90
12833;DHT22;6483;51.310;4.462;2022-08-18T09:08:15;31.50;99.90
12833;DHT22;6483;51.310;4.462;2022-08-18T09:14:06;30.90;99.90
12833;DHT22;6483;51.310;4.462;2022-08-18T09:17:24;31.30;99.90
12833;DHT22;6483;51.310;4.462;2022-08-18T09:23:07;30.70;99.90
12833;DHT22;6483;51.310;4.462;2022-08-18T09:43:14;26.50;99.90
12833;DHT22;6483;51.310;4.462;2022-08-18T09:45:53;26.30;99.90
12833;DHT22;6483;51.310;4.462;2022-08-18T09:48:32;26.20;99.90
12833;DHT22;6483;51.310;4.462;2022-08-18T09:51:31;27.20;99.90
12833;DHT22;6483;51.310;4.462;2022-08-18T09:54:10;28.40;99.90
12833;DHT22;6483;51.310;4.462;2022-08-18T10:02:05;34.30;98.10
12833;DHT22;6483;51.310;4.462;2022-08-18T10:04:36;36.30;94.30
12833;DHT22;6483;51.310;4.462;2022-08-18T10:07:38;33.60;95.60
12833;DHT22;6483;51.310;4.462;2022-08-18T10:10:12;30.50;99.30
12833;DHT22;6483;51.310;4.462;2022-08-18T10:15:28;26.80;99.90
12833;DHT22;6483;51.310;4.462;2022-08-18T10:18:27;26.00;99.90
12833;DHT22;6483;51.310;4.462;2022-08-18T10:21:16;26.40;99.90
12833;DHT22;6483;51.310;4.462;2022-08-18T10:29:46;30.30;99.90
12833;DHT22;6483;51.310;4.462;2022-08-18T10:34:49;30.70;99.90
12833;DHT22;6483;51.310;4.462;2022-08-18T10:45:22;32.80;93.90
12833;DHT22;6483;51.310;4.462;2022-08-18T10:51:15;35.20;94.20
12833;DHT22;6483;51.310;4.462;2022-08-18T10:53:51;35.10;91.10
12833;DHT22;6483;51.310;4.462;2022-08-18T10:59:25;30.00;97.10
12833;DHT22;6483;51.310;4.462;2022-08-18T11:04:44;27.60;99.90
12833;DHT22;6483;51.310;4.462;2022-08-18T11:07:23;27.10;99.90
12833;DHT22;6483;51.310;4.462;2022-08-18T11:09:52;26.60;99.90
12833;DHT22;6483;51.310;4.462;2022-08-18T11:12:46;26.60;99.90
12833;DHT22;6483;51.310;4.462;2022-08-18T11:20:46;32.80;98.80
12833;DHT22;6483;51.310;4.462;2022-08-18T11:23:15;35.90;94.60
12833;DHT22;6483;51.310;4.462;2022-08-18T11:25:41;36.90;90.20
12833;DHT22;6483;51.310;4.462;2022-08-18T11:28:18;34.70;91.90
12833;DHT22;6483;51.310;4.462;2022-08-18T11:30:47;33.30;93.60
12833;DHT22;6483;51.310;4.462;2022-08-18T11:33:21;33.60;94.40
12833;DHT22;6483;51.310;4.462;2022-08-18T11:38:36;31.70;95.20
12833;DHT22;6483;51.310;4.462;2022-08-18T11:41:18;30.00;98.40
12833;DHT22;6483;51.310;4.462;2022-08-18T11:43:44;28.70;99.90
12833;DHT22;6483;51.310;4.462;2022-08-18T11:48:49;28.50;99.90
12833;DHT22;6483;51.310;4.462;2022-08-18T11:51:35;28.70;99.90
12833;DHT22;6483;51.310;4.462;2022-08-18T11:54:21;29.40;99.90
12833;DHT22;6483;51.310;4.462;2022-08-18T11:56:50;31.30;99.90
12833;DHT22;6483;51.310;4.462;2022-08-18T12:02:03;34.20;96.00
12833;DHT22;6483;51.310;4.462;2022-08-18T12:04:43;35.60;92.70
12833;DHT22;6483;51.310;4.462;2022-08-18T12:07:16;34.70;90.90
12833;DHT22;6483;51.310;4.462;2022-08-18T12:10:21;36.60;88.80
12833;DHT22;6483;51.310;4.462;2022-08-18T12:12:51;39.70;84.20
12833;DHT22;6483;51.310;4.462;2022-08-18T12:20:11;42.10;71.80
12833;DHT22;6483;51.310;4.462;2022-08-18T12:35:22;37.90;69.80
12833;DHT22;6483;51.310;4.462;2022-08-18T12:37:48;30.00;96.00
12833;DHT22;6483;51.310;4.462;2022-08-18T12:40:14;29.40;98.10
12833;DHT22;6483;51.310;4.462;2022-08-18T12:42:40;29.20;98.30
12833;DHT22;6483;51.310;4.462;2022-08-18T12:45:06;28.80;98.20
12833;DHT22;6483;51.310;4.462;2022-08-18T12:47:36;28.40;99.90
12833;DHT22;6483;51.310;4.462;2022-08-18T12:50:07;28.40;99.90
12833;DHT22;6483;51.310;4.462;2022-08-18T12:52:32;28.40;99.90
12833;DHT22;6483;51.310;4.462;2022-08-18T12:54:58;28.70;99.90
12833;DHT22;6483;51.310;4.462;2022-08-18T12:57:26;29.00;99.90
12833;DHT22;6483;51.310;4.462;2022-08-18T12:59:52;29.30;99.90
12833;DHT22;6483;51.310;4.462;2022-08-18T13:02:20;29.90;99.90
12833;DHT22;6483;51.310;4.462;2022-08-18T13:04:49;31.60;97.20
12833;DHT22;6483;51.310;4.462;2022-08-18T13:07:14;31.50;96.90
12833;DHT22;6483;51.310;4.462;2022-08-18T13:09:41;31.10;96.30
12833;DHT22;6483;51.310;4.462;2022-08-18T13:12:11;31.00;97.20
12833;DHT22;6483;51.310;4.462;2022-08-18T13:14:38;30.50;96.10
12833;DHT22;6483;51.310;4.462;2022-08-18T13:17:07;30.10;97.40
12833;DHT22;6483;51.310;4.462;2022-08-18T13:19:34;30.30;97.10
12833;DHT22;6483;51.310;4.462;2022-08-18T13:22:00;32.40;96.20
12833;DHT22;6483;51.310;4.462;2022-08-18T13:24:26;34.00;93.50
12833;DHT22;6483;51.310;4.462;2022-08-18T13:26:52;33.70;91.40
12833;DHT22;6483;51.310;4.462;2022-08-18T13:29:18;34.90;92.60
12833;DHT22;6483;51.310;4.462;2022-08-18T13:31:46;36.20;91.40
12833;DHT22;6483;51.310;4.462;2022-08-18T13:34:15;38.50;81.30
12833;DHT22;6483;51.310;4.462;2022-08-18T13:41:52;41.20;77.70
12833;DHT22;6483;51.310;4.462;2022-08-18T13:44:19;37.20;71.20
12833;DHT22;6483;51.310;4.462;2022-08-18T13:46:46;36.50;73.90
12833;DHT22;6483;51.310;4.462;2022-08-18T13:49:17;35.80;73.30
12833;DHT22;6483;51.310;4.462;2022-08-18T13:51:44;37.30;75.10
12833;DHT22;6483;51.310;4.462;2022-08-18T13:54:17;39.70;71.30
12833;DHT22;6483;51.310;4.462;2022-08-18T13:59:10;42.40;66.20
12833;DHT22;6483;51.310;4.462;2022-08-18T14:01:37;46.00;60.50
12833;DHT22;6483;51.310;4.462;2022-08-18T14:04:08;45.90;55.70
12833;DHT22;6483;51.310;4.462;2022-08-18T14:06:39;46.40;54.00
12833;DHT22;6483;51.310;4.462;2022-08-18T14:09:05;46.30;53.20
12833;DHT22;6483;51.310;4.462;2022-08-18T14:11:35;45.50;51.50
12833;DHT22;6483;51.310;4.462;2022-08-18T16:08:55;46.60;52.10
12833;DHT22;6483;51.310;4.462;2022-08-18T16:11:21;30.70;97.30
12833;DHT22;6483;51.310;4.462;2022-08-18T16:13:48;30.20;96.80
12833;DHT22;6483;51.310;4.462;2022-08-18T16:16:22;30.40;96.80
12833;DHT22;6483;51.310;4.462;2022-08-18T16:18:51;31.10;96.90
12833;DHT22;6483;51.310;4.462;2022-08-18T16:21:22;31.00;96.10
12833;DHT22;6483;51.310;4.462;2022-08-18T16:23:50;30.60;96.50
12833;DHT22;6483;51.310;4.462;2022-08-18T16:26:18;29.90;96.10
12833;DHT22;6483;51.310;4.462;2022-08-18T16:28:45;29.30;96.80
12833;DHT22;6483;51.310;4.462;2022-08-18T16:31:13;29.30;97.60
12833;DHT22;6483;51.310;4.462;2022-08-18T16:33:42;29.70;96.40
12833;DHT22;6483;51.310;4.462;2022-08-18T16:36:09;30.30;97.00
12833;DHT22;6483;51.310;4.462;2022-08-18T16:38:36;30.80;96.50
12833;DHT22;6483;51.310;4.462;2022-08-18T16:41:12;31.50;95.60
12833;DHT22;6483;51.310;4.462;2022-08-18T16:43:47;32.10;94.40
12833;DHT22;6483;51.310;4.462;2022-08-18T16:46:16;32.60;93.20
12833;DHT22;6483;51.310;4.462;2022-08-18T18:10:12;32.90;92.40
12833;DHT22;6483;51.310;4.462;2022-08-18T18:20:34;28.90;99.90
12833;DHT22;6483;51.310;4.462;2022-08-18T18:28:47;26.20;99.90
12833;DHT22;6483;51.310;4.462;2022-08-18T18:31:23;24.40;99.90
12833;DHT22;6483;51.310;4.462;2022-08-18T18:34:01;24.40;99.90
12833;DHT22;6483;51.310;4.462;2022-08-18T18:36:36;24.00;99.90
12833;DHT22;6483;51.310;4.462;2022-08-18T18:39:29;23.70;99.90
12833;DHT22;6483;51.310;4.462;2022-08-18T18:42:16;23.40;99.90
12833;DHT22;6483;51.310;4.462;2022-08-18T18:45:18;23.20;99.90
12833;DHT22;6483;51.310;4.462;2022-08-18T18:50:34;22.60;99.90
12833;DHT22;6483;51.310;4.462;2022-08-18T18:53:28;22.50;99.90
12833;DHT22;6483;51.310;4.462;2022-08-18T18:59:20;22.10;99.90
12833;DHT22;6483;51.310;4.462;2022-08-18T19:02:26;21.90;99.90
12833;DHT22;6483;51.310;4.462;2022-08-18T19:08:05;21.50;99.90
12833;DHT22;6483;51.310;4.462;2022-08-18T19:14:09;21.10;99.90
12833;DHT22;6483;51.310;4.462;2022-08-18T19:17:11;20.90;99.90
12833;DHT22;6483;51.310;4.462;2022-08-18T19:19:48;20.90;99.90
12833;DHT22;6483;51.310;4.462;2022-08-18T19:22:35;20.80;99.90
12833;DHT22;6483;51.310;4.462;2022-08-18T19:25:15;20.60;99.90
12833;DHT22;6483;51.310;4.462;2022-08-18T19:27:47;20.70;99.90
12833;DHT22;6483;51.310;4.462;2022-08-18T19:30:19;20.50;99.90
12833;DHT22;6483;51.310;4.462;2022-08-18T19:32:49;20.30;99.90
12833;DHT22;6483;51.310;4.462;2022-08-18T19:35:22;20.10;99.90
12833;DHT22;6483;51.310;4.462;2022-08-18T19:43:52;19.70;99.90
12833;DHT22;6483;51.310;4.462;2022-08-18T19:49:03;19.50;99.90
12833;DHT22;6483;51.310;4.462;2022-08-18T19:51:39;19.40;99.90
12833;DHT22;6483;51.310;4.462;2022-08-18T19:54:32;19.30;99.90
12833;DHT22;6483;51.310;4.462;2022-08-18T20:14:00;18.80;99.90
12833;DHT22;6483;51.310;4.462;2022-08-18T20:16:32;18.70;99.90
12833;DHT22;6483;51.310;4.462;2022-08-18T20:19:00;18.70;99.90
12833;DHT22;6483;51.310;4.462;2022-08-18T20:22:09;18.60;99.90
12833;DHT22;6483;51.310;4.462;2022-08-18T20:30:32;18.50;99.90
12833;DHT22;6483;51.310;4.462;2022-08-18T20:33:28;18.70;99.90
12833;DHT22;6483;51.310;4.462;2022-08-18T20:36:02;18.70;99.90
12833;DHT22;6483;51.310;4.462;2022-08-18T20:38:54;18.60;99.90
12833;DHT22;6483;51.310;4.462;2022-08-18T20:41:39;18.40;99.90
12833;DHT22;6483;51.310;4.462;2022-08-18T20:52:02;18.00;99.90
12833;DHT22;6483;51.310;4.462;2022-08-18T20:54:47;18.00;99.90
12833;DHT22;6483;51.310;4.462;2022-08-18T20:57:16;18.10;99.90
12833;DHT22;6483;51.310;4.462;2022-08-18T20:59:52;18.20;99.90
12833;DHT22;6483;51.310;4.462;2022-08-18T21:02:34;18.00;99.90
12833;DHT22;6483;51.310;4.462;2022-08-18T21:05:03;17.90;99.90
12833;DHT22;6483;51.310;4.462;2022-08-18T21:07:32;17.80;99.90
12833;DHT22;6483;51.310;4.462;2022-08-18T21:10:17;17.80;99.90
12833;DHT22;6483;51.310;4.462;2022-08-18T21:12:54;17.70;99.90
12833;DHT22;6483;51.310;4.462;2022-08-18T21:15:27;17.70;99.90
12833;DHT22;6483;51.310;4.462;2022-08-18T21:18:00;17.70;99.90
12833;DHT22;6483;51.310;4.462;2022-08-18T21:20:27;17.80;99.90
12833;DHT22;6483;51.310;4.462;2022-08-18T21:23:10;17.80;99.90
12833;DHT22;6483;51.310;4.462;2022-08-18T21:25:49;17.80;99.90
12833;DHT22;6483;51.310;4.462;2022-08-18T21:28:18;17.90;99.90
12833;DHT22;6483;51.310;4.462;2022-08-18T21:31:00;17.80;99.90
12833;DHT22;6483;51.310;4.462;2022-08-18T21:33:29;17.60;99.90
12833;DHT22;6483;51.310;4.462;2022-08-18T21:35:55;17.50;99.90
12833;DHT22;6483;51.310;4.462;2022-08-18T21:38:26;17.50;99.90
12833;DHT22;6483;51.310;4.462;2022-08-18T21:40:56;17.40;99.90
12833;DHT22;6483;51.310;4.462;2022-08-18T21:46:07;17.30;99.90
12833;DHT22;6483;51.310;4.462;2022-08-18T21:48:39;17.30;99.90
12833;DHT22;6483;51.310;4.462;2022-08-18T21:51:06;17.30;99.90
12833;DHT22;6483;51.310;4.462;2022-08-18T21:53:34;17.20;99.90
12833;DHT22;6483;51.310;4.462;2022-08-18T21:56:03;17.20;99.90
12833;DHT22;6483;51.310;4.462;2022-08-18T21:58:39;17.30;99.90
12833;DHT22;6483;51.310;4.462;2022-08-18T22:03:55;17.30;99.90
12833;DHT22;6483;51.310;4.462;2022-08-18T22:06:38;17.40;99.90
12833;DHT22;6483;51.310;4.462;2022-08-18T22:12:28;17.20;99.90
12833;DHT22;6483;51.310;4.462;2022-08-18T22:15:41;17.10;99.90
12833;DHT22;6483;51.310;4.462;2022-08-18T22:20:47;17.00;99.90
12833;DHT22;6483;51.310;4.462;2022-08-18T22:28:32;16.90;99.90
12833;DHT22;6483;51.310;4.462;2022-08-18T22:30:58;16.80;99.90
12833;DHT22;6483;51.310;4.462;2022-08-18T22:33:27;16.80;99.90
12833;DHT22;6483;51.310;4.462;2022-08-18T22:35:56;16.90;99.90
12833;DHT22;6483;51.310;4.462;2022-08-18T22:38:25;17.00;99.90
12833;DHT22;6483;51.310;4.462;2022-08-18T22:40:52;17.00;99.90
12833;DHT22;6483;51.310;4.462;2022-08-18T22:43:18;16.90;99.90
12833;DHT22;6483;51.310;4.462;2022-08-18T22:45:43;16.80;99.90
12833;DHT22;6483;51.310;4.462;2022-08-18T22:48:09;16.80;99.90
12833;DHT22;6483;51.310;4.462;2022-08-18T22:50:35;16.70;99.90
12833;DHT22;6483;51.310;4.462;2022-08-18T22:53:01;16.90;99.90
12833;DHT22;6483;51.310;4.462;2022-08-18T22:55:27;16.80;99.90
12833;DHT22;6483;51.310;4.462;2022-08-18T22:57:55;16.70;99.90
12833;DHT22;6483;51.310;4.462;2022-08-18T23:00:22;16.60;99.90
12833;DHT22;6483;51.310;4.462;2022-08-18T23:02:47;16.60;99.90
12833;DHT22;6483;51.310;4.462;2022-08-18T23:05:17;16.60;99.90
12833;DHT22;6483;51.310;4.462;2022-08-18T23:07:42;16.50;99.90
12833;DHT22;6483;51.310;4.462;2022-08-18T23:10:09;16.60;99.90
12833;DHT22;6483;51.310;4.462;2022-08-18T23:12:36;16.70;99.90
12833;DHT22;6483;51.310;4.462;2022-08-18T23:15:04;16.60;99.90
12833;DHT22;6483;51.310;4.462;2022-08-18T23:17:40;16.60;99.90
12833;DHT22;6483;51.310;4.462;2022-08-18T23:20:09;16.50;99.90
12833;DHT22;6483;51.310;4.462;2022-08-18T23:22:37;16.70;99.90
12833;DHT22;6483;51.310;4.462;2022-08-18T23:25:05;16.70;99.90
12833;DHT22;6483;51.310;4.462;2022-08-18T23:27:31;16.70;99.90
12833;DHT22;6483;51.310;4.462;2022-08-18T23:30:00;16.60;99.90
12833;DHT22;6483;51.310;4.462;2022-08-18T23:32:26;16.60;99.90
12833;DHT22;6483;51.310;4.462;2022-08-18T23:34:55;16.60;99.90